CheckWX is a tool to help pilots better visualize weather data.  It is not intended as a substitute for an official pre-flight weather briefing.

04:40:29 UTC

KSUX METAR
Sioux Gateway / Col Bud Day Field Airport
Sioux City, Iowa, USA
Current

48 mins ago

KSUX 230352Z AUTO 10008KT 10SM CLR 18/16 A3007 RMK AO2 SLP177 T01830156
Observed
Aug-23 @ 03:52 UTC
Wind
  • 100° at 8 KTS
Visibility
10 SM
Flight Rules
VFR
Cloud Levels
  • Clear skies
Temperature
18°C / 64°F
Dewpoint
16°C / 61°F
Humidity
88%
Altimeter
30.07" Hg
Pressure
1018.32 hPa
Previous

2 hours ago

KSUX 230252Z AUTO 10008KT 10SM CLR 19/16 A3005 RMK AO2 SLP172 T01890161 53016
Observed
Aug-23 @ 02:52 UTC
Wind
  • 100° at 8 KTS
Visibility
10 SM
Flight Rules
VFR
Cloud Levels
  • Clear skies
Temperature
19°C / 66°F
Dewpoint
16°C / 61°F
Humidity
83%
Altimeter
30.05" Hg
Pressure
1017.62 hPa
Previous

3 hours ago

KSUX 230152Z 10008KT 10SM CLR 21/17 A3002 RMK AO2 SLP161 T02060167
Observed
Aug-23 @ 01:52 UTC
Wind
  • 100° at 8 KTS
Visibility
10 SM
Flight Rules
VFR
Cloud Levels
  • Clear skies
Temperature
21°C / 70°F
Dewpoint
17°C / 63°F
Humidity
78%
Altimeter
30.02" Hg
Pressure
1016.62 hPa